Terminal Aerodrome Forecast
Issued by NWS Blacksburg, VA

Current Version | Previous Version | Text Only | Print | Product List | Glossary Off
Versions: 1 2 3 4 5 6 7 8 9 10 11 12 13 14 15 16 17 18 19 20 21 22 23 24 25 26 27 28 29 30 31 32 33 34 35 36 37 38 39 40 41 42 43 44 45

000
FTUS41 KRNK 020529
TAFBLF
TAF
KBLF 020529Z 0206/0306 27009KT P6SM VCSH SCT030 OVC070
     FM021000 27008KT P6SM VCSH BKN012 OVC040
     FM021800 26007KT P6SM -SHRA SCT025 BKN035
      TEMPO 0218/0222 3SM -TSRA OVC020CB
     FM022200 VRB03KT 5SM BR VCTS OVC020CB=

USA.gov is the U.S. government's official web portal to all federal, state and local government web resources and services.